createdAt,value
2023-04-22T00:00:30.427Z,535.00
2023-04-22T00:01:30.531Z,534.00
2023-04-22T00:02:30.669Z,536.00
2023-04-22T00:03:30.688Z,535.00
2023-04-22T00:04:30.776Z,536.00
2023-04-22T00:05:30.770Z,537.00
2023-04-22T00:06:30.787Z,537.00
2023-04-22T00:07:30.875Z,538.00
2023-04-22T00:08:30.916Z,539.00
2023-04-22T00:09:30.970Z,535.00
2023-04-22T00:10:31.062Z,530.00
2023-04-22T00:11:31.087Z,528.00
2023-04-22T00:12:31.138Z,530.00
2023-04-22T00:13:31.161Z,532.00
2023-04-22T00:14:31.216Z,531.00
2023-04-22T00:15:31.385Z,530.00
2023-04-22T00:16:31.375Z,531.00
2023-04-22T00:17:31.385Z,530.00
2023-04-22T00:18:31.460Z,528.00
2023-04-22T00:19:31.527Z,529.00
2023-04-22T00:20:31.598Z,533.00
2023-04-22T00:21:31.601Z,533.00
2023-04-22T00:22:31.624Z,531.00
2023-04-22T00:23:31.688Z,531.00
2023-04-22T00:24:31.727Z,528.00
2023-04-22T00:25:31.773Z,527.00
2023-04-22T00:26:31.763Z,527.00
2023-04-22T00:27:31.826Z,527.00
2023-04-22T00:28:31.846Z,528.00
2023-04-22T00:29:31.872Z,528.00
2023-04-22T00:30:31.952Z,529.00
2023-04-22T00:31:32.104Z,532.00
2023-04-22T00:32:32.065Z,533.00
2023-04-22T00:33:32.046Z,534.00
2023-04-22T00:34:32.095Z,532.00
2023-04-22T00:35:32.135Z,529.00
2023-04-22T00:36:32.149Z,530.00
2023-04-22T00:37:32.171Z,531.00
2023-04-22T00:38:32.189Z,531.00
2023-04-22T00:39:32.194Z,529.00
2023-04-22T00:40:32.246Z,527.00
2023-04-22T00:41:32.231Z,529.00
2023-04-22T00:42:32.303Z,531.00
2023-04-22T00:43:32.297Z,529.00
2023-04-22T00:44:32.316Z,528.00
2023-04-22T00:45:32.348Z,528.00
2023-04-22T00:46:32.439Z,528.00
2023-04-22T00:47:32.439Z,526.00
2023-04-22T00:48:32.400Z,527.00
2023-04-22T00:49:32.414Z,527.00
2023-04-22T00:50:32.443Z,529.00
2023-04-22T00:51:32.448Z,527.00
2023-04-22T00:52:32.444Z,523.00
2023-04-22T00:53:32.421Z,522.00
2023-04-22T00:54:32.451Z,522.00
2023-04-22T00:55:32.516Z,523.00
2023-04-22T00:56:32.473Z,524.00
2023-04-22T00:57:32.501Z,523.00
2023-04-22T00:58:32.490Z,525.00
2023-04-22T00:59:32.499Z,526.00
2023-04-22T01:00:32.585Z,526.00
2023-04-22T01:01:32.660Z,526.00
2023-04-22T01:02:32.684Z,527.00
2023-04-22T01:03:32.737Z,527.00
2023-04-22T01:04:32.612Z,525.00
2023-04-22T01:05:32.594Z,524.00
2023-04-22T01:06:32.621Z,527.00
2023-04-22T01:07:32.602Z,525.00
2023-04-22T01:08:32.630Z,526.00
2023-04-22T01:09:32.611Z,525.00
2023-04-22T01:10:32.631Z,523.00
2023-04-22T01:11:32.629Z,522.00
2023-04-22T01:12:32.658Z,522.00
2023-04-22T01:13:32.669Z,521.00
2023-04-22T01:14:32.685Z,517.00
2023-04-22T01:15:33.161Z,516.00
2023-04-22T01:16:32.778Z,516.00
2023-04-22T01:17:32.794Z,517.00
2023-04-22T01:18:32.765Z,518.00
2023-04-22T01:19:32.762Z,519.00
2023-04-22T01:20:32.784Z,519.00
2023-04-22T01:21:32.722Z,520.00
2023-04-22T01:22:33.641Z,521.00
2023-04-22T01:23:32.750Z,522.00
2023-04-22T01:24:32.768Z,522.00
2023-04-22T01:25:32.779Z,522.00
2023-04-22T01:26:32.779Z,522.00
2023-04-22T01:27:32.830Z,522.00
2023-04-22T01:28:32.739Z,520.00
2023-04-22T01:29:32.763Z,520.00
2023-04-22T01:30:32.741Z,519.00
2023-04-22T01:31:32.822Z,517.00
2023-04-22T01:32:32.796Z,515.00
2023-04-22T01:33:32.757Z,514.00
2023-04-22T01:34:32.756Z,515.00
2023-04-22T01:35:32.726Z,514.00
2023-04-22T01:36:32.758Z,514.00
2023-04-22T01:37:32.748Z,514.00
2023-04-22T01:38:32.731Z,515.00
2023-04-22T01:39:32.717Z,515.00
2023-04-22T01:40:32.751Z,514.00
2023-04-22T01:41:32.758Z,515.00
2023-04-22T01:42:32.759Z,517.00
2023-04-22T01:43:32.781Z,514.00
2023-04-22T01:44:32.726Z,512.00
2023-04-22T01:45:32.733Z,511.00
2023-04-22T01:46:32.783Z,510.00
2023-04-22T01:47:32.897Z,513.00
2023-04-22T01:48:32.764Z,513.00
2023-04-22T01:49:32.775Z,513.00
2023-04-22T01:50:32.723Z,512.00
2023-04-22T01:51:32.763Z,514.00
2023-04-22T01:52:32.731Z,514.00
2023-04-22T01:53:32.767Z,514.00
2023-04-22T01:54:32.770Z,514.00
2023-04-22T01:55:32.774Z,512.00
2023-04-22T01:56:32.783Z,510.00
2023-04-22T01:57:32.743Z,507.00
2023-04-22T01:58:32.748Z,508.00
2023-04-22T01:59:32.745Z,505.00
2023-04-22T02:00:32.790Z,506.00
2023-04-22T02:01:32.805Z,506.00
2023-04-22T02:02:32.886Z,507.00
2023-04-22T02:03:32.840Z,509.00
2023-04-22T02:04:32.758Z,509.00
2023-04-22T02:05:32.760Z,509.00
2023-04-22T02:06:32.794Z,507.00
2023-04-22T02:07:32.796Z,509.00
2023-04-22T02:08:32.776Z,511.00
2023-04-22T02:09:32.814Z,509.00
2023-04-22T02:10:32.815Z,509.00
2023-04-22T02:11:32.799Z,508.00
2023-04-22T02:12:32.805Z,508.00
2023-04-22T02:13:32.812Z,508.00
2023-04-22T02:14:32.826Z,508.00
2023-04-22T02:15:32.883Z,507.00
2023-04-22T02:16:33.355Z,509.00
2023-04-22T02:17:32.842Z,509.00
2023-04-22T02:18:32.838Z,505.00
2023-04-22T02:19:32.873Z,503.00
2023-04-22T02:20:32.896Z,505.00
2023-04-22T02:21:32.913Z,507.00
2023-04-22T02:22:32.896Z,510.00
2023-04-22T02:23:32.928Z,511.00
2023-04-22T02:24:32.929Z,509.00
2023-04-22T02:25:32.942Z,509.00
2023-04-22T02:26:32.996Z,508.00
2023-04-22T02:27:32.977Z,508.00
2023-04-22T02:28:32.982Z,507.00
2023-04-22T02:29:33.037Z,509.00
2023-04-22T02:30:33.037Z,510.00
2023-04-22T02:31:33.124Z,511.00
2023-04-22T02:32:33.111Z,508.00
2023-04-22T02:33:33.051Z,506.00
2023-04-22T02:34:33.045Z,507.00
2023-04-22T02:35:33.082Z,504.00
2023-04-22T02:36:33.121Z,505.00
2023-04-22T02:37:33.139Z,503.00
2023-04-22T02:38:33.133Z,505.00
2023-04-22T02:39:33.156Z,505.00
2023-04-22T02:40:33.178Z,507.00
2023-04-22T02:41:33.185Z,506.00
2023-04-22T02:42:33.217Z,507.00
2023-04-22T02:43:33.210Z,506.00
2023-04-22T02:44:33.225Z,505.00
2023-04-22T02:45:33.245Z,505.00
2023-04-22T02:46:33.309Z,504.00
2023-04-22T02:47:33.386Z,504.00
2023-04-22T02:48:33.269Z,506.00
2023-04-22T02:49:33.305Z,506.00
2023-04-22T02:50:33.304Z,506.00
2023-04-22T02:51:33.353Z,507.00
2023-04-22T02:52:33.395Z,506.00
2023-04-22T02:53:33.405Z,504.00
2023-04-22T02:54:33.405Z,507.00
2023-04-22T02:55:33.445Z,504.00
2023-04-22T02:56:33.471Z,502.00
2023-04-22T02:57:33.467Z,502.00
2023-04-22T02:58:33.512Z,502.00
2023-04-22T02:59:33.512Z,501.00
2023-04-22T03:00:33.537Z,500.00
2023-04-22T03:01:33.753Z,501.00
2023-04-22T03:02:33.707Z,500.00
2023-04-22T03:03:33.881Z,500.00
2023-04-22T03:04:33.752Z,502.00
2023-04-22T03:05:33.612Z,503.00
2023-04-22T03:06:33.674Z,505.00
2023-04-22T03:07:33.688Z,504.00
2023-04-22T03:08:33.689Z,504.00
2023-04-22T03:09:33.710Z,503.00
2023-04-22T03:10:33.753Z,504.00
2023-04-22T03:11:33.773Z,506.00
2023-04-22T03:12:33.785Z,506.00
2023-04-22T03:13:33.803Z,505.00
2023-04-22T03:14:33.834Z,505.00
2023-04-22T03:15:33.880Z,505.00
2023-04-22T03:16:33.907Z,504.00
2023-04-22T03:17:33.955Z,506.00
2023-04-22T03:18:33.962Z,509.00
2023-04-22T03:19:33.987Z,504.00
2023-04-22T03:20:34.020Z,503.00
2023-04-22T03:21:34.037Z,504.00
2023-04-22T03:22:34.050Z,502.00
2023-04-22T03:23:34.119Z,499.00
2023-04-22T03:24:34.117Z,497.00
2023-04-22T03:25:34.120Z,496.00
2023-04-22T03:26:34.161Z,497.00
2023-04-22T03:27:34.205Z,498.00
2023-04-22T03:28:34.200Z,496.00
2023-04-22T03:29:34.230Z,496.00
2023-04-22T03:30:34.302Z,496.00
2023-04-22T03:31:34.412Z,497.00
2023-04-22T03:32:34.406Z,499.00
2023-04-22T03:33:34.374Z,497.00
2023-04-22T03:34:36.959Z,497.00
2023-04-22T03:35:34.396Z,501.00
2023-04-22T03:36:34.416Z,504.00
2023-04-22T03:37:34.377Z,502.00
2023-04-22T03:38:34.361Z,501.00
2023-04-22T03:39:34.404Z,498.00
2023-04-22T03:40:34.347Z,497.00
2023-04-22T03:41:34.384Z,495.00
2023-04-22T03:42:34.336Z,495.00
2023-04-22T03:43:34.341Z,496.00
2023-04-22T03:44:34.367Z,496.00
2023-04-22T03:45:34.343Z,495.00
2023-04-22T03:46:34.650Z,494.00
2023-04-22T03:47:34.340Z,494.00
2023-04-22T03:48:34.308Z,495.00
2023-04-22T03:49:34.284Z,497.00
2023-04-22T03:50:34.285Z,500.00
2023-04-22T03:51:34.320Z,499.00
2023-04-22T03:52:34.266Z,500.00
2023-04-22T03:53:34.280Z,499.00
2023-04-22T03:54:34.259Z,497.00
2023-04-22T03:55:34.250Z,497.00
2023-04-22T03:56:34.258Z,495.00
2023-04-22T03:57:34.274Z,497.00
2023-04-22T03:58:34.228Z,499.00
2023-04-22T03:59:34.235Z,499.00
2023-04-22T04:00:34.239Z,499.00
2023-04-22T04:01:34.231Z,499.00
2023-04-22T04:02:34.426Z,498.00
2023-04-22T04:03:34.525Z,497.00
2023-04-22T04:04:34.428Z,497.00
2023-04-22T04:05:34.234Z,496.00
2023-04-22T04:06:34.192Z,496.00
2023-04-22T04:07:34.164Z,501.00
2023-04-22T04:08:34.191Z,502.00
2023-04-22T04:09:34.163Z,501.00
2023-04-22T04:10:34.147Z,501.00
2023-04-22T04:11:34.243Z,500.00
2023-04-22T04:12:34.167Z,501.00
2023-04-22T04:13:34.153Z,500.00
2023-04-22T04:14:34.139Z,500.00
2023-04-22T04:15:34.139Z,500.00
2023-04-22T04:16:34.206Z,499.00
2023-04-22T04:17:34.092Z,497.00
2023-04-22T04:18:34.093Z,496.00
2023-04-22T04:19:34.086Z,497.00
2023-04-22T04:20:34.102Z,500.00
2023-04-22T04:21:34.092Z,501.00
2023-04-22T04:22:34.070Z,501.00
2023-04-22T04:23:34.067Z,500.00
2023-04-22T04:24:34.067Z,501.00
2023-04-22T04:25:34.035Z,499.00
2023-04-22T04:26:34.036Z,498.00
2023-04-22T04:27:34.062Z,497.00
2023-04-22T04:28:34.036Z,500.00
2023-04-22T04:29:34.077Z,499.00
2023-04-22T04:30:34.286Z,500.00
2023-04-22T04:31:34.188Z,501.00
2023-04-22T04:32:34.273Z,502.00
2023-04-22T04:33:34.207Z,503.00
2023-04-22T04:34:34.269Z,502.00
2023-04-22T04:35:34.279Z,502.00
2023-04-22T04:36:34.344Z,501.00
2023-04-22T04:37:34.333Z,501.00
2023-04-22T04:38:34.373Z,499.00
2023-04-22T04:39:34.425Z,498.00
2023-04-22T04:40:34.424Z,496.00
2023-04-22T04:41:34.502Z,495.00
2023-04-22T04:42:34.501Z,494.00
2023-04-22T04:43:34.534Z,494.00
2023-04-22T04:44:34.572Z,496.00
2023-04-22T04:45:34.612Z,495.00
2023-04-22T04:46:34.763Z,495.00
2023-04-22T04:47:34.718Z,497.00
2023-04-22T04:48:34.732Z,498.00
2023-04-22T04:49:34.742Z,499.00
2023-04-22T04:50:34.764Z,499.00
2023-04-22T04:51:34.812Z,497.00
2023-04-22T04:52:34.846Z,498.00
2023-04-22T04:53:34.879Z,497.00
2023-04-22T04:54:34.907Z,497.00
2023-04-22T04:55:34.935Z,499.00
2023-04-22T04:56:34.972Z,499.00
2023-04-22T04:57:36.104Z,498.00
2023-04-22T04:58:34.995Z,498.00
2023-04-22T04:59:35.004Z,497.00
2023-04-22T05:00:34.999Z,498.00
2023-04-22T05:01:35.037Z,500.00
2023-04-22T05:02:35.095Z,499.00
2023-04-22T05:03:35.054Z,500.00
2023-04-22T05:04:35.079Z,498.00
2023-04-22T05:05:34.993Z,498.00
2023-04-22T05:06:34.946Z,496.00
2023-04-22T05:07:34.963Z,495.00
2023-04-22T05:08:34.932Z,497.00
2023-04-22T05:09:34.914Z,494.00
2023-04-22T05:10:34.928Z,490.00
2023-04-22T05:11:34.929Z,490.00
2023-04-22T05:12:34.953Z,492.00
2023-04-22T05:13:34.941Z,492.00
2023-04-22T05:14:34.905Z,494.00
2023-04-22T05:15:34.889Z,494.00
2023-04-22T05:16:34.968Z,490.00
2023-04-22T05:17:34.902Z,489.00
2023-04-22T05:18:34.884Z,492.00
2023-04-22T05:19:34.861Z,489.00
2023-04-22T05:20:36.212Z,487.00
2023-04-22T05:21:34.871Z,488.00
2023-04-22T05:22:34.880Z,489.00
2023-04-22T05:23:34.850Z,490.00
2023-04-22T05:24:34.830Z,492.00
2023-04-22T05:25:34.815Z,494.00
2023-04-22T05:26:34.818Z,495.00
2023-04-22T05:27:34.826Z,496.00
2023-04-22T05:28:34.806Z,494.00
2023-04-22T05:29:34.794Z,492.00
2023-04-22T05:30:34.797Z,491.00
2023-04-22T05:31:34.823Z,490.00
2023-04-22T05:32:34.836Z,490.00
2023-04-22T05:33:34.781Z,491.00
2023-04-22T05:34:34.801Z,492.00
2023-04-22T05:35:34.781Z,494.00
2023-04-22T05:36:34.757Z,494.00
2023-04-22T05:37:34.762Z,496.00
2023-04-22T05:38:34.755Z,493.00
2023-04-22T05:39:34.748Z,494.00
2023-04-22T05:40:34.753Z,493.00
2023-04-22T05:41:34.768Z,491.00
2023-04-22T05:42:34.731Z,492.00
2023-04-22T05:43:34.731Z,493.00
2023-04-22T05:44:34.768Z,489.00
2023-04-22T05:45:34.810Z,493.00
2023-04-22T05:46:34.862Z,496.00
2023-04-22T05:47:34.885Z,498.00
2023-04-22T05:48:34.923Z,499.00
2023-04-22T05:49:34.911Z,497.00
2023-04-22T05:50:34.956Z,494.00
2023-04-22T05:51:34.972Z,493.00
2023-04-22T05:52:35.023Z,491.00
2023-04-22T05:53:35.049Z,491.00
2023-04-22T05:54:35.057Z,488.00
2023-04-22T05:55:35.085Z,487.00
2023-04-22T05:56:35.157Z,485.00
2023-04-22T05:57:35.146Z,486.00
2023-04-22T05:58:35.202Z,487.00
2023-04-22T05:59:35.246Z,488.00
2023-04-22T06:00:35.257Z,488.00
2023-04-22T06:01:35.303Z,488.00
2023-04-22T06:02:35.497Z,489.00
2023-04-22T06:03:35.465Z,488.00
2023-04-22T06:04:37.306Z,490.00
2023-04-22T06:05:35.453Z,488.00
2023-04-22T06:06:35.449Z,488.00
2023-04-22T06:07:35.489Z,491.00
2023-04-22T06:08:35.513Z,492.00
2023-04-22T06:09:35.563Z,492.00
2023-04-22T06:10:35.573Z,493.00
2023-04-22T06:11:35.645Z,493.00
2023-04-22T06:12:35.641Z,493.00
2023-04-22T06:13:35.709Z,493.00
2023-04-22T06:14:35.710Z,491.00
2023-04-22T06:15:35.765Z,490.00
2023-04-22T06:16:35.785Z,488.00
2023-04-22T06:17:35.889Z,489.00
2023-04-22T06:18:36.604Z,493.00
2023-04-22T06:19:35.901Z,493.00
2023-04-22T06:20:35.968Z,493.00
2023-04-22T06:21:35.995Z,491.00
2023-04-22T06:22:36.026Z,487.00
2023-04-22T06:23:36.047Z,488.00
2023-04-22T06:24:36.084Z,488.00
2023-04-22T06:25:36.116Z,491.00
2023-04-22T06:26:36.128Z,491.00
2023-04-22T06:27:36.157Z,491.00
2023-04-22T06:28:36.228Z,490.00
2023-04-22T06:29:36.320Z,490.00
2023-04-22T06:30:36.295Z,490.00
2023-04-22T06:31:36.371Z,490.00
2023-04-22T06:32:36.365Z,491.00
2023-04-22T06:33:36.411Z,492.00
2023-04-22T06:34:36.423Z,490.00
2023-04-22T06:35:36.463Z,489.00
2023-04-22T06:36:36.490Z,489.00
2023-04-22T06:37:36.500Z,487.00
2023-04-22T06:38:36.575Z,488.00
2023-04-22T06:39:36.629Z,489.00
2023-04-22T06:40:36.601Z,486.00
2023-04-22T06:41:36.634Z,485.00
2023-04-22T06:42:36.674Z,484.00
2023-04-22T06:43:36.730Z,486.00
2023-04-22T06:44:36.729Z,487.00
2023-04-22T06:45:36.772Z,487.00
2023-04-22T06:46:36.853Z,489.00
2023-04-22T06:47:36.871Z,489.00
2023-04-22T06:48:36.870Z,489.00
2023-04-22T06:49:37.079Z,487.00
2023-04-22T06:50:36.939Z,486.00
2023-04-22T06:51:37.008Z,485.00
2023-04-22T06:52:37.026Z,484.00
2023-04-22T06:53:37.063Z,482.00
2023-04-22T06:54:37.124Z,481.00
2023-04-22T06:55:37.116Z,481.00
2023-04-22T06:56:37.176Z,485.00
2023-04-22T06:57:37.184Z,487.00
2023-04-22T06:58:37.222Z,487.00
2023-04-22T06:59:37.500Z,488.00
2023-04-22T07:00:37.310Z,489.00
2023-04-22T07:01:37.402Z,488.00
2023-04-22T07:02:37.461Z,486.00
2023-04-22T07:03:37.535Z,483.00
2023-04-22T07:04:37.509Z,484.00
2023-04-22T07:05:39.576Z,482.00
2023-04-22T07:06:37.547Z,483.00
2023-04-22T07:07:37.545Z,482.00
2023-04-22T07:08:37.584Z,483.00
2023-04-22T07:09:37.953Z,481.00
2023-04-22T07:10:37.647Z,481.00
2023-04-22T07:11:37.705Z,482.00
2023-04-22T07:12:37.802Z,484.00
2023-04-22T07:13:37.769Z,482.00
2023-04-22T07:14:37.795Z,480.00
2023-04-22T07:15:37.834Z,479.00
2023-04-22T07:16:37.939Z,481.00
2023-04-22T07:17:37.961Z,480.00
2023-04-22T07:18:37.936Z,478.00
2023-04-22T07:19:38.140Z,478.00
2023-04-22T07:20:37.988Z,479.00
2023-04-22T07:21:38.039Z,480.00
2023-04-22T07:22:38.045Z,478.00
2023-04-22T07:23:38.114Z,479.00
2023-04-22T07:24:38.109Z,480.00
2023-04-22T07:25:38.143Z,481.00
2023-04-22T07:26:38.175Z,478.00
2023-04-22T07:27:38.211Z,478.00
2023-04-22T07:28:38.227Z,477.00
2023-04-22T07:29:38.411Z,476.00
2023-04-22T07:30:38.305Z,475.00
2023-04-22T07:31:38.392Z,473.00
2023-04-22T07:32:38.378Z,473.00
2023-04-22T07:33:38.392Z,470.00
2023-04-22T07:34:38.416Z,469.00
2023-04-22T07:35:38.414Z,471.00
2023-04-22T07:36:38.512Z,470.00
2023-04-22T07:37:38.542Z,471.00
2023-04-22T07:38:38.578Z,470.00
2023-04-22T07:39:38.887Z,472.00
2023-04-22T07:40:38.611Z,474.00
2023-04-22T07:41:38.673Z,474.00
2023-04-22T07:42:38.674Z,473.00
2023-04-22T07:43:38.726Z,473.00
2023-04-22T07:44:39.627Z,472.00
2023-04-22T07:45:38.773Z,472.00
2023-04-22T07:46:38.845Z,474.00
2023-04-22T07:47:38.858Z,476.00
2023-04-22T07:48:38.864Z,475.00
2023-04-22T07:49:39.042Z,476.00
2023-04-22T07:50:39.072Z,474.00
2023-04-22T07:51:38.986Z,472.00
2023-04-22T07:52:38.990Z,472.00
2023-04-22T07:53:39.042Z,473.00
2023-04-22T07:54:39.084Z,471.00
2023-04-22T07:55:39.121Z,470.00
2023-04-22T07:56:39.148Z,469.00
2023-04-22T07:57:39.173Z,469.00
2023-04-22T07:58:39.212Z,468.00
2023-04-22T07:59:39.541Z,472.00
2023-04-22T08:00:39.398Z,472.00
2023-04-22T08:01:39.306Z,473.00
2023-04-22T08:02:39.455Z,469.00
2023-04-22T08:03:39.546Z,468.00
2023-04-22T08:04:39.459Z,468.00
2023-04-22T08:05:39.448Z,466.00
2023-04-22T08:06:39.476Z,467.00
2023-04-22T08:07:39.497Z,467.00
2023-04-22T08:08:39.571Z,467.00
2023-04-22T08:09:39.898Z,465.00
2023-04-22T08:10:39.622Z,464.00
2023-04-22T08:11:39.742Z,464.00
2023-04-22T08:12:39.709Z,463.00
2023-04-22T08:13:39.743Z,466.00
2023-04-22T08:14:39.759Z,467.00
2023-04-22T08:15:39.840Z,465.00
2023-04-22T08:16:39.868Z,463.00
2023-04-22T08:17:39.890Z,461.00
2023-04-22T08:18:39.923Z,461.00
2023-04-22T08:19:40.271Z,461.00
2023-04-22T08:20:39.969Z,461.00
2023-04-22T08:21:40.008Z,463.00
2023-04-22T08:22:40.051Z,463.00
2023-04-22T08:23:40.080Z,460.00
2023-04-22T08:24:40.127Z,461.00
2023-04-22T08:25:40.140Z,461.00
2023-04-22T08:26:40.228Z,463.00
2023-04-22T08:27:40.220Z,464.00
2023-04-22T08:28:40.282Z,461.00
2023-04-22T08:29:40.754Z,461.00
2023-04-22T08:30:40.359Z,461.00
2023-04-22T08:31:40.637Z,460.00
2023-04-22T08:32:40.449Z,460.00
2023-04-22T08:33:40.440Z,463.00
2023-04-22T08:34:40.890Z,463.00
2023-04-22T08:35:40.528Z,464.00
2023-04-22T08:36:40.600Z,463.00
2023-04-22T08:37:40.592Z,463.00
2023-04-22T08:38:40.631Z,465.00
2023-04-22T08:39:40.899Z,465.00
2023-04-22T08:40:40.727Z,466.00
2023-04-22T08:41:40.757Z,466.00
2023-04-22T08:42:40.814Z,463.00
2023-04-22T08:43:40.804Z,464.00
2023-04-22T08:44:40.857Z,464.00
2023-04-22T08:45:40.888Z,465.00
2023-04-22T08:46:40.925Z,464.00
2023-04-22T08:47:40.975Z,461.00
2023-04-22T08:48:40.986Z,456.00
2023-04-22T08:49:41.242Z,454.00
2023-04-22T08:50:41.108Z,454.00
2023-04-22T08:51:41.059Z,453.00
2023-04-22T08:52:41.110Z,455.00
2023-04-22T08:53:41.140Z,456.00
2023-04-22T08:54:41.174Z,453.00
2023-04-22T08:55:41.237Z,452.00
2023-04-22T08:56:41.273Z,452.00
2023-04-22T08:57:41.321Z,454.00
2023-04-22T08:58:41.316Z,453.00
2023-04-22T08:59:41.697Z,453.00
2023-04-22T09:00:41.417Z,453.00
2023-04-22T09:01:41.497Z,450.00
2023-04-22T09:02:41.458Z,450.00
2023-04-22T09:03:41.654Z,449.00
2023-04-22T09:04:41.564Z,448.00
2023-04-22T09:05:41.575Z,448.00
2023-04-22T09:06:41.622Z,449.00
2023-04-22T09:07:41.647Z,450.00
2023-04-22T09:08:41.697Z,450.00
2023-04-22T09:09:41.817Z,450.00
2023-04-22T09:10:41.713Z,448.00
2023-04-22T09:11:41.797Z,450.00
2023-04-22T09:12:41.773Z,449.00
2023-04-22T09:13:41.845Z,450.00
2023-04-22T09:14:41.865Z,454.00
2023-04-22T09:15:41.908Z,456.00
2023-04-22T09:16:41.968Z,458.00
2023-04-22T09:17:41.998Z,457.00
2023-04-22T09:18:42.007Z,456.00
2023-04-22T09:19:42.140Z,455.00
2023-04-22T09:20:42.104Z,454.00
2023-04-22T09:21:42.101Z,452.00
2023-04-22T09:22:42.120Z,452.00
2023-04-22T09:23:42.150Z,451.00
2023-04-22T09:24:42.157Z,451.00
2023-04-22T09:25:42.223Z,453.00
2023-04-22T09:26:42.245Z,454.00
2023-04-22T09:27:42.240Z,454.00
2023-04-22T09:28:42.312Z,456.00
2023-04-22T09:29:42.288Z,455.00
2023-04-22T09:30:42.325Z,454.00
2023-04-22T09:31:42.475Z,452.00
2023-04-22T09:32:42.463Z,452.00
2023-04-22T09:33:42.467Z,452.00
2023-04-22T09:34:42.480Z,452.00
2023-04-22T09:35:42.499Z,453.00
2023-04-22T09:36:42.550Z,450.00
2023-04-22T09:37:49.209Z,451.00
2023-04-22T09:38:43.536Z,452.00
2023-04-22T09:39:42.549Z,455.00
2023-04-22T09:40:42.568Z,455.00
2023-04-22T09:41:42.542Z,455.00
2023-04-22T09:42:42.534Z,456.00
2023-04-22T09:43:42.482Z,455.00
2023-04-22T09:44:42.514Z,454.00
2023-04-22T09:45:42.606Z,452.00
2023-04-22T09:46:42.514Z,452.00
2023-04-22T09:47:42.495Z,451.00
2023-04-22T09:48:42.486Z,449.00
2023-04-22T09:49:42.473Z,445.00
2023-04-22T09:50:42.445Z,444.00
2023-04-22T09:51:42.505Z,445.00
2023-04-22T09:52:42.421Z,445.00
2023-04-22T09:53:42.448Z,446.00
2023-04-22T09:54:42.436Z,447.00
2023-04-22T09:55:42.455Z,447.00
2023-04-22T09:56:42.488Z,446.00
2023-04-22T09:57:42.526Z,444.00
2023-04-22T09:58:42.529Z,442.00
2023-04-22T09:59:42.698Z,440.00
2023-04-22T10:00:42.582Z,439.00
2023-04-22T10:01:42.647Z,439.00
2023-04-22T10:02:42.711Z,441.00
2023-04-22T10:03:42.647Z,442.00
2023-04-22T10:04:42.664Z,443.00
2023-04-22T10:05:42.671Z,445.00
2023-04-22T10:06:42.688Z,445.00
2023-04-22T10:07:42.732Z,447.00
2023-04-22T10:08:42.763Z,447.00
2023-04-22T10:09:42.753Z,446.00
2023-04-22T10:10:42.799Z,446.00
2023-04-22T10:11:42.845Z,445.00
2023-04-22T10:12:42.825Z,443.00
2023-04-22T10:13:42.843Z,445.00
2023-04-22T10:14:42.896Z,444.00
2023-04-22T10:15:42.901Z,445.00
2023-04-22T10:16:42.963Z,445.00
2023-04-22T10:17:43.045Z,446.00
2023-04-22T10:18:42.963Z,444.00
2023-04-22T10:19:43.029Z,443.00
2023-04-22T10:20:42.999Z,443.00
2023-04-22T10:21:42.998Z,443.00
2023-04-22T10:22:43.055Z,442.00
2023-04-22T10:23:43.038Z,441.00
2023-04-22T10:24:43.043Z,443.00
2023-04-22T10:25:43.077Z,441.00
2023-04-22T10:26:43.122Z,439.00
2023-04-22T10:27:43.103Z,437.00
2023-04-22T10:28:43.312Z,438.00
2023-04-22T10:29:43.557Z,439.00
2023-04-22T10:30:43.190Z,441.00
2023-04-22T10:31:43.208Z,438.00
2023-04-22T10:32:43.329Z,439.00
2023-04-22T10:33:43.256Z,438.00
2023-04-22T10:34:43.252Z,439.00
2023-04-22T10:35:43.265Z,438.00
2023-04-22T10:36:43.281Z,440.00
2023-04-22T10:37:43.330Z,441.00
2023-04-22T10:38:43.341Z,444.00
2023-04-22T10:39:43.609Z,445.00
2023-04-22T10:40:43.361Z,450.00
2023-04-22T10:41:43.400Z,452.00
2023-04-22T10:42:43.376Z,451.00
2023-04-22T10:43:43.400Z,452.00
2023-04-22T10:44:43.417Z,453.00
2023-04-22T10:45:43.427Z,451.00
2023-04-22T10:46:43.487Z,454.00
2023-04-22T10:47:43.517Z,453.00
2023-04-22T10:48:43.486Z,451.00
2023-04-22T10:49:43.505Z,451.00
2023-04-22T10:50:43.512Z,450.00
2023-04-22T10:51:43.504Z,451.00
2023-04-22T10:52:43.528Z,450.00
2023-04-22T10:53:43.553Z,450.00
2023-04-22T10:54:43.584Z,449.00
2023-04-22T10:55:43.568Z,450.00
2023-04-22T10:56:51.707Z,450.00
2023-04-22T10:57:44.587Z,451.00
2023-04-22T10:58:43.577Z,453.00
2023-04-22T10:59:43.584Z,454.00
2023-04-22T11:00:53.351Z,454.00
2023-04-22T11:01:44.665Z,453.00
2023-04-22T11:02:43.623Z,453.00
2023-04-22T11:03:43.606Z,450.00
2023-04-22T11:04:43.580Z,449.00
2023-04-22T11:05:43.554Z,449.00
2023-04-22T11:06:43.543Z,451.00
2023-04-22T11:07:43.528Z,449.00
2023-04-22T11:08:43.532Z,447.00
2023-04-22T11:09:43.505Z,447.00
2023-04-22T11:10:44.596Z,446.00
2023-04-22T11:11:43.505Z,447.00
2023-04-22T11:12:43.516Z,449.00
2023-04-22T11:13:43.496Z,449.00
2023-04-22T11:14:43.452Z,448.00
2023-04-22T11:15:43.481Z,449.00
2023-04-22T11:16:43.477Z,446.00
2023-04-22T11:17:43.562Z,445.00
2023-04-22T11:18:43.449Z,447.00
2023-04-22T11:19:43.416Z,448.00
2023-04-22T11:20:43.448Z,449.00
2023-04-22T11:21:43.441Z,450.00
2023-04-22T11:22:43.428Z,447.00
2023-04-22T11:23:43.423Z,446.00
2023-04-22T11:24:43.410Z,445.00
2023-04-22T11:25:43.426Z,448.00
2023-04-22T11:26:43.457Z,447.00
2023-04-22T11:27:43.448Z,448.00
2023-04-22T11:28:43.451Z,450.00
2023-04-22T11:29:43.440Z,447.00
2023-04-22T11:30:43.426Z,448.00
2023-04-22T11:31:43.455Z,449.00
2023-04-22T11:32:43.465Z,451.00
2023-04-22T11:33:43.447Z,451.00
2023-04-22T11:34:43.473Z,450.00
2023-04-22T11:35:43.462Z,450.00
2023-04-22T11:36:43.472Z,448.00
2023-04-22T11:37:43.486Z,445.00
2023-04-22T11:38:43.479Z,444.00
2023-04-22T11:39:59.709Z,447.00
2023-04-22T11:40:46.387Z,449.00
2023-04-22T11:41:43.501Z,449.00
2023-04-22T11:42:43.460Z,449.00
2023-04-22T11:43:43.456Z,450.00
2023-04-22T11:44:43.449Z,450.00
2023-04-22T11:45:43.508Z,450.00
2023-04-22T11:46:43.471Z,450.00
2023-04-22T11:47:43.439Z,450.00
2023-04-22T11:48:43.447Z,450.00
2023-04-22T11:49:43.420Z,448.00
2023-04-22T11:50:43.415Z,447.00
2023-04-22T11:51:43.421Z,444.00
2023-04-22T11:52:43.386Z,441.00
2023-04-22T11:53:43.405Z,444.00
2023-04-22T11:54:43.394Z,447.00
2023-04-22T11:55:43.394Z,448.00
2023-04-22T11:56:43.374Z,448.00
2023-04-22T11:57:43.393Z,447.00
2023-04-22T11:58:43.359Z,446.00
2023-04-22T11:59:43.385Z,446.00
2023-04-22T12:00:43.390Z,446.00
2023-04-22T12:01:43.380Z,446.00
2023-04-22T12:02:43.456Z,445.00
2023-04-22T12:03:43.559Z,445.00
2023-04-22T12:04:43.339Z,446.00
2023-04-22T12:05:43.308Z,445.00
2023-04-22T12:06:43.326Z,444.00
2023-04-22T12:07:43.308Z,443.00
2023-04-22T12:08:43.308Z,443.00
2023-04-22T12:09:43.298Z,446.00
2023-04-22T12:10:43.295Z,443.00
2023-04-22T12:11:43.273Z,445.00
2023-04-22T12:12:43.277Z,442.00
2023-04-22T12:13:43.288Z,444.00
2023-04-22T12:14:43.237Z,447.00
2023-04-22T12:15:43.400Z,448.00
2023-04-22T12:16:43.292Z,451.00
2023-04-22T12:17:43.383Z,450.00
2023-04-22T12:18:43.240Z,449.00
2023-04-22T12:19:43.209Z,448.00
2023-04-22T12:20:43.217Z,445.00
2023-04-22T12:21:43.185Z,444.00
2023-04-22T12:22:43.225Z,445.00
2023-04-22T12:23:43.188Z,446.00
2023-04-22T12:24:43.192Z,444.00
2023-04-22T12:25:43.182Z,442.00
2023-04-22T12:26:43.167Z,443.00
2023-04-22T12:27:43.193Z,444.00
2023-04-22T12:28:43.133Z,442.00